Time;durP1;ratioP1;P1;durP2;ratioP2;P2;SDS_P1;SDS_P2;PMS_P1;PMS_P2;Temp;Humidity;BMP_temperature;BMP_pressure;BME280_temperature;BME280_humidity;BME280_pressure;Samples;Min_cycle;Max_cycle;Signal;HPM_P1;HPM_P2
2022/09/03 00:01:49;;;;;;;3.28;1.20;;;;;;;;;;4938471;29;20042;-77
2022/09/03 00:04:39;;;;;;;3.00;1.48;;;;;;;;;;4938341;29;20020;-78
2022/09/03 00:07:28;;;;;;;3.28;1.40;;;;;;;;;;4936071;29;20397;-78
2022/09/03 00:10:01;;;;;;;2.97;1.10;;;;;;;;;;4938218;28;20396;-79
2022/09/03 00:12:29;;;;;;;4.63;1.23;;;;;;;;;;4938335;28;20046;-77
2022/09/03 00:14:58;;;;;;;2.60;1.27;;;;;;;;;;4941317;28;20515;-79
2022/09/03 00:17:51;;;;;;;2.72;1.48;;;;;;;;;;4937957;28;20476;-82
2022/09/03 00:20:24;;;;;;;5.30;1.52;;;;;;;;;;4938344;29;20078;-80
2022/09/03 00:22:51;;;;;;;5.82;1.50;;;;;;;;;;4938041;29;20023;-79
2022/09/03 00:25:24;;;;;;;3.25;1.70;;;;;;;;;;4937574;29;20428;-78
2022/09/03 00:27:54;;;;;;;4.93;1.73;;;;;;;;;;4938912;29;20039;-80
2022/09/03 00:30:21;;;;;;;4.70;1.70;;;;;;;;;;4964131;28;20442;-80
2022/09/03 00:32:57;;;;;;;5.07;1.40;;;;;;;;;;4976313;28;20034;-79
2022/09/03 00:35:28;;;;;;;4.07;1.80;;;;;;;;;;4977695;28;20483;-80
2022/09/03 00:37:55;;;;;;;2.80;1.50;;;;;;;;;;4976144;28;20073;-79
2022/09/03 00:40:27;;;;;;;4.18;1.45;;;;;;;;;;4976176;28;20027;-80
2022/09/03 00:42:56;;;;;;;3.17;1.67;;;;;;;;;;4977067;28;20027;-80
2022/09/03 00:45:42;;;;;;;3.05;1.70;;;;;;;;;;4976986;28;20030;-79
2022/09/03 00:48:16;;;;;;;3.53;1.52;;;;;;;;;;4975350;28;20030;-78
2022/09/03 00:51:00;;;;;;;3.97;1.80;;;;;;;;;;4977416;28;20062;-79
2022/09/03 00:53:33;;;;;;;3.33;1.42;;;;;;;;;;4975525;28;20027;-80
2022/09/03 00:56:06;;;;;;;3.38;1.65;;;;;;;;;;4975547;28;20487;-80
2022/09/03 00:58:32;;;;;;;;;;;;;;;;;;4975903;28;20070;-79
2022/09/03 01:00:58;;;;;;;3.83;1.40;;;;;;;;;;4976863;28;20354;-80
2022/09/03 01:03:31;;;;;;;2.70;1.38;;;;;;;;;;4975603;28;20030;-79
2022/09/03 01:06:02;;;;;;;4.55;1.52;;;;;;;;;;4975473;28;20487;-81
2022/09/03 01:08:31;;;;;;;2.80;1.50;;;;;;;;;;4975398;28;20058;-80
2022/09/03 01:11:05;;;;;;;4.93;1.55;;;;;;;;;;4975453;28;20419;-81
2022/09/03 01:13:35;;;;;;;2.33;1.23;;;;;;;;;;4975341;28;20034;-80
2022/09/03 01:16:07;;;;;;;4.68;1.70;;;;;;;;;;4975368;28;20035;-80
2022/09/03 01:18:51;;;;;;;2.95;1.58;;;;;;;;;;4975345;28;20135;-80
2022/09/03 01:21:20;;;;;;;3.80;1.75;;;;;;;;;;4976931;28;20114;-80
2022/09/03 01:24:06;;;;;;;4.80;1.90;;;;;;;;;;4975053;28;20081;-77
2022/09/03 01:26:52;;;;;;;4.32;1.92;;;;;;;;;;4976871;28;20106;-81
2022/09/03 01:29:19;;;;;;;3.03;1.40;;;;;;;;;;4974816;28;20050;-80
2022/09/03 01:32:00;;;;;;;2.33;1.50;;;;;;;;;;4975004;28;20118;-80
2022/09/03 01:34:33;;;;;;;3.45;1.77;;;;;;;;;;4974869;28;20039;-80
2022/09/03 01:37:02;;;;;;;2.97;1.50;;;;;;;;;;4976643;28;20031;-79
2022/09/03 01:39:34;;;;;;;5.75;1.40;;;;;;;;;;4975263;28;20035;-80
2022/09/03 01:42:19;;;;;;;4.32;1.50;;;;;;;;;;4976162;28;20506;-80
2022/09/03 01:45:06;;;;;;;2.95;1.40;;;;;;;;;;4976915;28;20090;-80
2022/09/03 01:47:50;;;;;;;1.85;1.15;;;;;;;;;;4975798;28;20085;-80
2022/09/03 01:50:25;;;;;;;3.15;1.60;;;;;;;;;;4974898;28;20483;-81
2022/09/03 01:52:55;;;;;;;2.78;1.20;;;;;;;;;;4974377;28;20037;-81
2022/09/03 01:55:21;;;;;;;3.58;1.50;;;;;;;;;;4974679;28;20035;-81
2022/09/03 01:57:56;;;;;;;3.92;1.90;;;;;;;;;;4974605;28;20138;-81
2022/09/03 02:00:23;;;;;;;2.40;1.40;;;;;;;;;;4975842;28;20109;-80
2022/09/03 02:02:50;;;;;;;2.50;1.42;;;;;;;;;;4975893;28;20023;-81
2022/09/03 02:05:28;;;;;;;2.72;1.42;;;;;;;;;;4974318;28;20038;-79
2022/09/03 02:08:00;;;;;;;3.50;1.65;;;;;;;;;;4974437;28;20487;-82
2022/09/03 02:10:34;;;;;;;6.53;1.70;;;;;;;;;;4974460;28;20127;-85
2022/09/03 02:13:20;;;;;;;4.28;1.52;;;;;;;;;;4976169;28;20026;-83
2022/09/03 02:15:49;;;;;;;3.72;1.75;;;;;;;;;;4977402;28;20491;-81
2022/09/03 02:18:26;;;;;;;5.95;1.70;;;;;;;;;;4974309;28;20027;-82
2022/09/03 02:20:53;;;;;;;4.35;1.50;;;;;;;;;;4974815;28;20580;-81
2022/09/03 02:23:20;;;;;;;6.50;1.30;;;;;;;;;;4974013;28;20078;-81
2022/09/03 02:25:51;;;;;;;3.67;1.50;;;;;;;;;;4975558;28;20034;-80
2022/09/03 02:28:18;;;;;;;4.00;1.60;;;;;;;;;;4974011;28;20060;-82
2022/09/03 02:30:44;;;;;;;3.88;1.50;;;;;;;;;;4973702;28;20054;-81
2022/09/03 02:33:10;;;;;;;2.70;1.58;;;;;;;;;;4973889;28;20062;-84
2022/09/03 02:35:37;;;;;;;2.63;1.45;;;;;;;;;;4974120;28;20503;-83
2022/09/03 02:38:13;;;;;;;3.45;1.90;;;;;;;;;;4974172;28;20077;-81
2022/09/03 02:40:40;;;;;;;6.22;1.38;;;;;;;;;;4973879;28;20030;-81
2022/09/03 02:43:07;;;;;;;2.85;1.35;;;;;;;;;;4973747;28;20019;-81
2022/09/03 02:45:36;;;;;;;8.10;1.55;;;;;;;;;;4973849;28;20023;-79
2022/09/03 02:48:02;;;;;;;3.72;1.60;;;;;;;;;;4973777;28;20031;-82
2022/09/03 02:50:28;;;;;;;3.40;1.65;;;;;;;;;;4975049;28;20019;-83
2022/09/03 02:52:55;;;;;;;6.30;1.67;;;;;;;;;;4975467;28;20071;-82
2022/09/03 02:55:21;;;;;;;2.90;1.33;;;;;;;;;;4973561;28;20109;-81
2022/09/03 02:57:47;;;;;;;6.47;1.35;;;;;;;;;;4974911;28;20033;-80
2022/09/03 03:00:14;;;;;;;4.10;1.88;;;;;;;;;;4973781;28;20035;-81
2022/09/03 03:02:41;;;;;;;3.88;1.48;;;;;;;;;;4974199;28;20023;-78
2022/09/03 03:05:10;;;;;;;11.13;1.55;;;;;;;;;;4974264;28;20406;-80
2022/09/03 03:07:38;;;;;;;2.67;1.40;;;;;;;;;;4974119;28;20023;-81
2022/09/03 03:10:04;;;;;;;5.68;1.52;;;;;;;;;;4974736;28;20129;-81
2022/09/03 03:12:31;;;;;;;2.00;1.10;;;;;;;;;;4977504;28;20023;-81
2022/09/03 03:14:57;;;;;;;4.68;1.40;;;;;;;;;;4977498;28;20035;-86
2022/09/03 03:17:23;;;;;;;3.35;1.52;;;;;;;;;;4978476;28;20062;-85
2022/09/03 03:19:49;;;;;;;2.35;1.27;;;;;;;;;;4977481;28;20443;-84
2022/09/03 03:22:15;;;;;;;4.45;1.60;;;;;;;;;;4977437;28;20019;-81
2022/09/03 03:24:41;;;;;;;3.40;1.58;;;;;;;;;;4978707;28;20031;-84
2022/09/03 03:27:09;;;;;;;3.00;1.42;;;;;;;;;;4977567;28;20030;-81
2022/09/03 03:29:36;;;;;;;2.33;1.10;;;;;;;;;;4977130;28;20138;-84
2022/09/03 03:32:02;;;;;;;4.45;1.60;;;;;;;;;;4977289;28;20026;-81
2022/09/03 03:34:28;;;;;;;2.35;1.30;;;;;;;;;;4978653;28;20043;-85
2022/09/03 03:36:55;;;;;;;6.68;1.10;;;;;;;;;;4977269;28;20479;-84
2022/09/03 03:39:21;;;;;;;3.17;1.52;;;;;;;;;;4977259;28;20050;-80
2022/09/03 03:41:47;;;;;;;4.65;1.58;;;;;;;;;;4978256;28;20038;-83
2022/09/03 03:44:14;;;;;;;2.28;1.17;;;;;;;;;;4977018;28;20431;-84
2022/09/03 03:46:41;;;;;;;3.70;1.60;;;;;;;;;;4978570;28;20069;-81
2022/09/03 03:49:07;;;;;;;2.45;1.50;;;;;;;;;;4978970;28;20027;-85
2022/09/03 03:51:34;;;;;;;4.70;1.63;;;;;;;;;;4977621;28;20023;-80
2022/09/03 03:54:01;;;;;;;2.25;1.23;;;;;;;;;;4977915;28;20030;-80
2022/09/03 03:56:27;;;;;;;5.03;1.60;;;;;;;;;;4977724;28;20441;-80
2022/09/03 03:58:54;;;;;;;2.70;1.60;;;;;;;;;;4978003;28;20491;-83
2022/09/03 04:01:24;;;;;;;3.80;1.42;;;;;;;;;;4976735;28;20026;-83
2022/09/03 04:03:50;;;;;;;10.50;1.90;;;;;;;;;;4977117;28;20051;-80
2022/09/03 04:06:18;;;;;;;3.58;1.70;;;;;;;;;;4976788;28;20033;-84
2022/09/03 04:08:45;;;;;;;2.97;1.60;;;;;;;;;;4976671;28;20031;-81
2022/09/03 04:11:12;;;;;;;4.45;1.50;;;;;;;;;;4976575;28;20468;-81
2022/09/03 04:13:39;;;;;;;5.38;1.80;;;;;;;;;;4976649;28;20487;-84
2022/09/03 04:16:14;;;;;;;13.95;2.05;;;;;;;;;;4976794;28;20534;-84
2022/09/03 04:18:40;;;;;;;5.28;1.40;;;;;;;;;;4977741;28;20027;-80
2022/09/03 04:21:27;;;;;;;3.90;1.77;;;;;;;;;;4978638;28;20543;-84
2022/09/03 04:23:53;;;;;;;2.67;1.33;;;;;;;;;;4992570;28;20043;-82
2022/09/03 04:26:21;;;;;;;5.55;2.00;;;;;;;;;;4976631;28;20380;-81
2022/09/03 04:28:47;;;;;;;3.80;1.52;;;;;;;;;;4977496;28;20038;-81
2022/09/03 04:31:16;;;;;;;3.72;1.40;;;;;;;;;;4976005;28;20380;-81
2022/09/03 04:33:42;;;;;;;2.88;1.70;;;;;;;;;;4975940;28;20042;-82
2022/09/03 04:36:09;;;;;;;3.75;1.55;;;;;;;;;;4976002;28;20487;-82
2022/09/03 04:38:36;;;;;;;6.72;1.80;;;;;;;;;;4975915;28;20030;-84
2022/09/03 04:41:02;;;;;;;5.47;1.88;;;;;;;;;;4975947;28;20081;-81
2022/09/03 04:43:29;;;;;;;9.00;1.83;;;;;;;;;;4977119;28;20033;-80
2022/09/03 04:46:02;;;;;;;7.57;2.38;;;;;;;;;;4976964;28;20483;-84
2022/09/03 04:48:29;;;;;;;3.50;1.73;;;;;;;;;;4976316;28;20498;-78
2022/09/03 04:50:55;;;;;;;8.05;1.83;;;;;;;;;;4975622;28;20042;-82
2022/09/03 04:53:22;;;;;;;6.13;2.05;;;;;;;;;;4975420;28;20031;-80
2022/09/03 04:55:48;;;;;;;4.00;1.80;;;;;;;;;;4976688;28;20046;-81
2022/09/03 04:58:14;;;;;;;5.22;2.22;;;;;;;;;;4976348;28;20054;-80
2022/09/03 05:00:40;;;;;;;3.63;2.17;;;;;;;;;;4976624;28;20085;-80
2022/09/03 05:03:06;;;;;;;4.80;2.22;;;;;;;;;;4975274;28;20030;-84
2022/09/03 05:05:33;;;;;;;4.45;2.30;;;;;;;;;;4975140;28;20031;-82
2022/09/03 05:08:02;;;;;;;7.43;2.28;;;;;;;;;;4974762;28;20033;-81
2022/09/03 05:10:29;;;;;;;4.18;2.20;;;;;;;;;;4974647;28;20031;-81
2022/09/03 05:13:05;;;;;;;5.45;2.22;;;;;;;;;;4975149;28;20027;-81
2022/09/03 05:15:32;;;;;;;3.80;1.98;;;;;;;;;;4975026;28;20038;-80
2022/09/03 05:18:02;;;;;;;9.35;2.30;;;;;;;;;;4975074;28;20035;-81
2022/09/03 05:20:29;;;;;;;4.20;2.28;;;;;;;;;;4974833;28;20435;-79
2022/09/03 05:22:56;;;;;;;6.80;2.35;;;;;;;;;;4976195;28;20495;-80
2022/09/03 05:25:22;;;;;;;4.38;2.00;;;;;;;;;;4974290;28;20542;-84
2022/09/03 05:27:48;;;;;;;3.65;2.10;;;;;;;;;;4973923;28;20026;-83
2022/09/03 05:30:14;;;;;;;4.15;2.10;;;;;;;;;;4975993;28;20046;-81
2022/09/03 05:32:41;;;;;;;7.47;2.50;;;;;;;;;;4976317;28;20038;-81
2022/09/03 05:35:08;;;;;;;3.85;2.30;;;;;;;;;;4974602;28;20031;-83
2022/09/03 05:37:34;;;;;;;6.88;3.05;;;;;;;;;;4975364;28;20023;-83
2022/09/03 05:40:00;;;;;;;6.38;2.40;;;;;;;;;;4977049;28;20089;-81
2022/09/03 05:42:27;;;;;;;5.63;2.30;;;;;;;;;;4976361;28;20027;-81
2022/09/03 05:44:53;;;;;;;4.65;2.63;;;;;;;;;;4974843;28;20035;-82
2022/09/03 05:47:19;;;;;;;5.55;2.10;;;;;;;;;;4975822;28;20506;-86
2022/09/03 05:49:46;;;;;;;4.68;2.42;;;;;;;;;;4974596;28;20467;-81
2022/09/03 05:52:12;;;;;;;6.90;2.63;;;;;;;;;;4975057;28;20048;-83
2022/09/03 05:54:38;;;;;;;6.10;2.22;;;;;;;;;;4976263;28;20039;-85
2022/09/03 05:57:04;;;;;;;4.32;2.40;;;;;;;;;;4976476;28;20031;-86
2022/09/03 05:59:30;;;;;;;3.90;2.45;;;;;;;;;;4976798;28;20442;-90
2022/09/03 06:01:57;;;;;;;7.78;2.35;;;;;;;;;;4975661;28;20034;-84
2022/09/03 06:04:23;;;;;;;6.88;2.22;;;;;;;;;;4974521;28;20029;-87
2022/09/03 06:06:49;;;;;;;6.13;2.38;;;;;;;;;;4974412;28;20369;-77
2022/09/03 06:09:19;;;;;;;4.80;2.22;;;;;;;;;;4979938;28;20036;-80
2022/09/03 06:11:46;;;;;;;6.15;2.50;;;;;;;;;;5010339;28;20487;-84
2022/09/03 06:14:13;;;;;;;6.43;2.22;;;;;;;;;;5010441;28;20402;-82
2022/09/03 06:16:41;;;;;;;3.40;2.08;;;;;;;;;;5009563;28;20054;-80
2022/09/03 06:19:08;;;;;;;3.20;1.67;;;;;;;;;;5009771;28;20483;-78
2022/09/03 06:21:35;;;;;;;2.70;1.50;;;;;;;;;;5009885;28;20026;-84
2022/09/03 06:24:02;;;;;;;6.70;2.30;;;;;;;;;;5009171;28;20030;-81
2022/09/03 06:26:28;;;;;;;6.10;1.45;;;;;;;;;;4994989;28;20034;-84
2022/09/03 06:28:55;;;;;;;8.13;1.80;;;;;;;;;;5008726;28;20067;-81
2022/09/03 06:31:22;;;;;;;4.28;2.10;;;;;;;;;;5009242;28;20022;-82
2022/09/03 06:33:48;;;;;;;3.35;1.73;;;;;;;;;;4993700;28;20060;-82
2022/09/03 06:36:15;;;;;;;3.30;1.40;;;;;;;;;;4993487;28;20037;-78
2022/09/03 06:38:42;;;;;;;2.85;1.50;;;;;;;;;;4994086;28;20072;-82
2022/09/03 06:41:19;;;;;;;3.33;1.75;;;;;;;;;;5009056;28;20027;-81
2022/09/03 06:44:17;;;;;;;3.38;1.80;;;;;;;;;;5050335;23;20026;-84
2022/09/03 06:46:43;;;;;;;4.28;1.67;;;;;;;;;;5000629;28;20038;-80
2022/09/03 06:49:10;;;;;;;4.57;1.48;;;;;;;;;;4992520;28;20483;-79
2022/09/03 06:51:37;;;;;;;3.50;1.83;;;;;;;;;;4999907;28;20041;-79
2022/09/03 06:54:05;;;;;;;3.33;1.77;;;;;;;;;;4993952;28;20034;-80
2022/09/03 06:56:33;;;;;;;2.60;1.40;;;;;;;;;;4992026;28;20463;-80
2022/09/03 06:59:00;;;;;;;3.83;1.90;;;;;;;;;;4993439;28;20022;-80
2022/09/03 07:01:29;;;;;;;3.50;1.77;;;;;;;;;;4994546;28;20443;-80
2022/09/03 07:06:32;;;;;;;4.68;2.00;;;;;;;;;;4774066;26;20054;-81
2022/09/03 07:08:59;;;;;;;3.35;1.80;;;;;;;;;;5009697;28;20410;-79
2022/09/03 07:11:28;;;;;;;5.05;1.83;;;;;;;;;;4993755;28;20092;-80
2022/09/03 07:13:54;;;;;;;4.22;1.70;;;;;;;;;;5008255;28;20034;-76
2022/09/03 07:16:28;;;;;;;5.10;1.50;;;;;;;;;;4993862;28;20109;-80
2022/09/03 07:18:55;;;;;;;3.78;1.55;;;;;;;;;;5009067;28;20054;-79
2022/09/03 07:21:25;;;;;;;3.83;1.70;;;;;;;;;;5008385;28;20455;-85
2022/09/03 07:23:52;;;;;;;5.75;1.90;;;;;;;;;;5077271;23;20026;-83
2022/09/03 07:26:19;;;;;;;6.20;1.80;;;;;;;;;;4973384;28;20122;-83
2022/09/03 07:28:46;;;;;;;3.78;1.83;;;;;;;;;;4973062;28;20027;-84
2022/09/03 07:31:13;;;;;;;3.83;1.83;;;;;;;;;;4973015;28;20027;-83
2022/09/03 07:33:43;;;;;;;3.88;1.63;;;;;;;;;;4972965;28;20026;-82
2022/09/03 07:39:14;;;;;;;3.35;1.65;;;;;;;;;;4980333;28;20037;-82
2022/09/03 07:41:58;;;;;;;4.32;1.45;;;;;;;;;;4973101;28;20114;-84
2022/09/03 07:44:28;;;;;;;2.95;1.65;;;;;;;;;;4952299;28;20499;-82
2022/09/03 07:46:55;;;;;;;6.15;2.10;;;;;;;;;;4953219;28;20038;-90
2022/09/03 07:49:21;;;;;;;3.33;1.35;;;;;;;;;;4953015;28;20404;-83
2022/09/03 07:51:51;;;;;;;8.70;1.65;;;;;;;;;;4952861;29;20114;-83
2022/09/03 07:54:17;;;;;;;6.63;2.05;;;;;;;;;;4952977;29;20130;-82
2022/09/03 07:56:43;;;;;;;5.45;1.67;;;;;;;;;;4953556;28;20031;-83
2022/09/03 07:59:10;;;;;;;2.25;1.38;;;;;;;;;;4957107;29;20357;-87
2022/09/03 08:01:37;;;;;;;4.65;1.73;;;;;;;;;;4956512;28;20027;-83
2022/09/03 08:04:05;;;;;;;3.55;1.75;;;;;;;;;;4956395;28;20521;-90
2022/09/03 08:06:33;;;;;;;3.65;1.73;;;;;;;;;;4956665;28;20174;-83
2022/09/03 08:09:03;;;;;;;3.20;1.40;;;;;;;;;;4956095;28;20114;-90
2022/09/03 08:11:30;;;;;;;3.63;1.20;;;;;;;;;;4956284;29;20034;-83
2022/09/03 08:14:01;;;;;;;3.08;1.15;;;;;;;;;;4955904;28;20078;-82
2022/09/03 08:16:28;;;;;;;3.37;1.60;;;;;;;;;;4975365;28;20499;-85
2022/09/03 08:18:55;;;;;;;4.43;1.70;;;;;;;;;;4977399;28;20255;-82
2022/09/03 08:21:22;;;;;;;2.35;1.50;;;;;;;;;;4976140;28;20034;-87
2022/09/03 08:23:49;;;;;;;2.15;1.20;;;;;;;;;;4977183;28;20038;-83
2022/09/03 08:26:16;;;;;;;2.97;1.63;;;;;;;;;;4976075;28;20030;-91
2022/09/03 08:28:42;;;;;;;3.60;1.50;;;;;;;;;;4977289;28;20030;-85
2022/09/03 08:31:10;;;;;;;3.08;1.38;;;;;;;;;;4976096;28;20030;-84
2022/09/03 08:33:37;;;;;;;3.53;1.40;;;;;;;;;;4975594;28;20067;-86
2022/09/03 08:36:13;;;;;;;6.45;1.58;;;;;;;;;;4975590;28;20026;-84
2022/09/03 08:38:41;;;;;;;4.90;1.33;;;;;;;;;;4989139;28;20038;-75
2022/09/03 08:41:18;;;;;;;3.10;1.40;;;;;;;;;;4976986;28;20483;-82
2022/09/03 08:44:04;;;;;;;2.15;1.17;;;;;;;;;;4976971;28;20383;-76
2022/09/03 08:46:51;;;;;;;4.50;1.23;;;;;;;;;;4991729;28;20483;-82
2022/09/03 08:49:23;;;;;;;3.25;1.42;;;;;;;;;;4991632;28;20071;-80
2022/09/03 08:51:50;;;;;;;1.67;1.08;;;;;;;;;;4976630;28;20066;-85
2022/09/03 08:54:18;;;;;;;2.50;1.23;;;;;;;;;;4976697;28;20089;-81
2022/09/03 08:56:45;;;;;;;9.65;1.55;;;;;;;;;;4991590;28;20027;-80
2022/09/03 08:59:11;;;;;;;2.55;1.20;;;;;;;;;;4976607;28;20030;-79
2022/09/03 09:01:49;;;;;;;4.88;1.42;;;;;;;;;;4991538;28;20602;-74
2022/09/03 09:04:18;;;;;;;2.58;1.17;;;;;;;;;;4991533;28;20026;-74
2022/09/03 09:06:50;;;;;;;2.80;1.33;;;;;;;;;;4976556;28;20099;-76
2022/09/03 09:09:23;;;;;;;2.10;1.00;;;;;;;;;;4976717;28;20031;-78
2022/09/03 09:11:55;;;;;;;2.45;1.13;;;;;;;;;;4991345;28;20019;-80
2022/09/03 09:14:40;;;;;;;3.67;1.38;;;;;;;;;;4991209;28;20041;-79
2022/09/03 09:17:22;;;;;;;6.93;1.13;;;;;;;;;;4991243;28;20061;-80
2022/09/03 09:19:57;;;;;;;1.80;1.00;;;;;;;;;;4991159;28;20030;-87
2022/09/03 09:22:43;;;;;;;2.60;1.10;;;;;;;;;;4991067;28;20034;-83
2022/09/03 09:25:20;;;;;;;5.28;1.15;;;;;;;;;;4990882;28;20046;-80
2022/09/03 09:27:52;;;;;;;3.40;1.00;;;;;;;;;;4991144;28;20407;-79
2022/09/03 09:30:19;;;;;;;5.82;1.08;;;;;;;;;;4990987;28;20081;-80
2022/09/03 09:32:46;;;;;;;2.10;1.02;;;;;;;;;;4976240;28;20031;-81
2022/09/03 09:35:12;;;;;;;1.98;0.90;;;;;;;;;;4990826;28;20101;-81
2022/09/03 09:37:51;;;;;;;2.78;1.27;;;;;;;;;;4990829;28;20074;-81
2022/09/03 09:40:29;;;;;;;1.48;0.70;;;;;;;;;;4990823;28;20483;-81
2022/09/03 09:43:14;;;;;;;6.07;1.00;;;;;;;;;;4976398;28;20031;-83
2022/09/03 09:45:45;;;;;;;1.60;0.82;;;;;;;;;;4990641;28;20033;-75
2022/09/03 09:48:17;;;;;;;2.92;1.00;;;;;;;;;;4990618;28;20122;-80
2022/09/03 09:50:44;;;;;;;1.38;0.80;;;;;;;;;;4990615;28;20029;-81
2022/09/03 09:53:15;;;;;;;7.13;0.93;;;;;;;;;;4990590;28;20065;-80
2022/09/03 09:55:51;;;;;;;6.95;0.88;;;;;;;;;;4990356;28;20042;-82
2022/09/03 09:58:22;;;;;;;2.35;0.90;;;;;;;;;;4990330;28;20051;-82
2022/09/03 10:00:55;;;;;;;5.00;0.88;;;;;;;;;;4976008;28;20027;-80
2022/09/03 10:03:21;;;;;;;1.83;0.77;;;;;;;;;;4990372;28;20034;-80
2022/09/03 10:05:58;;;;;;;2.05;0.80;;;;;;;;;;4975396;28;20026;-81
2022/09/03 10:08:24;;;;;;;3.33;0.80;;;;;;;;;;4990254;28;20031;-81
2022/09/03 10:10:51;;;;;;;3.03;0.98;;;;;;;;;;4990065;28;20463;-81
2022/09/03 10:13:39;;;;;;;1.90;0.90;;;;;;;;;;4990212;28;20034;-79
2022/09/03 10:16:15;;;;;;;1.88;0.88;;;;;;;;;;4990217;28;20046;-82
2022/09/03 10:18:44;;;;;;;1.42;0.70;;;;;;;;;;4990210;28;20026;-83
2022/09/03 10:21:31;;;;;;;3.70;0.80;;;;;;;;;;4975058;28;20062;-80
2022/09/03 10:24:14;;;;;;;1.17;0.55;;;;;;;;;;4989783;28;20500;-81
2022/09/03 10:26:43;;;;;;;3.55;1.00;;;;;;;;;;4990169;28;20360;-84
2022/09/03 10:29:10;;;;;;;3.50;1.13;;;;;;;;;;4990013;28;20034;-82
2022/09/03 10:31:36;;;;;;;3.50;0.82;;;;;;;;;;4990488;28;20031;-89
2022/09/03 10:34:17;;;;;;;6.07;1.00;;;;;;;;;;4989659;28;20062;-79
2022/09/03 10:36:43;;;;;;;;;;;;;;;;;;4990389;28;20411;-75
2022/09/03 10:39:28;;;;;;;2.65;0.80;;;;;;;;;;4973808;28;19913;-80
2022/09/03 10:42:05;;;;;;;1.70;0.70;;;;;;;;;;4989947;28;20031;-82
2022/09/03 10:44:34;;;;;;;2.38;0.73;;;;;;;;;;4974821;28;20460;-79
2022/09/03 10:47:03;;;;;;;4.57;0.80;;;;;;;;;;4989784;28;20027;-81
2022/09/03 10:49:32;;;;;;;3.58;1.02;;;;;;;;;;4990040;28;20050;-77
2022/09/03 10:52:17;;;;;;;2.20;0.80;;;;;;;;;;4989771;28;20031;-83
2022/09/03 10:54:52;;;;;;;1.70;0.77;;;;;;;;;;4989873;28;20053;-80
2022/09/03 10:57:29;;;;;;;3.67;0.90;;;;;;;;;;4975262;28;20051;-80
2022/09/03 11:00:08;;;;;;;6.07;0.82;;;;;;;;;;4991968;28;20027;-82
2022/09/03 11:02:53;;;;;;;3.28;0.95;;;;;;;;;;4990339;28;20030;-81
2022/09/03 11:05:20;;;;;;;2.83;0.90;;;;;;;;;;4989795;28;20395;-83
2022/09/03 11:07:49;;;;;;;1.95;0.80;;;;;;;;;;4989883;28;20031;-82
2022/09/03 11:10:18;;;;;;;3.67;0.90;;;;;;;;;;4975038;28;20389;-82
2022/09/03 11:12:47;;;;;;;3.88;1.20;;;;;;;;;;4975218;28;20027;-79
2022/09/03 11:15:17;;;;;;;2.03;1.00;;;;;;;;;;4990579;28;20050;-79
2022/09/03 11:17:52;;;;;;;5.93;1.10;;;;;;;;;;4989783;28;20114;-78
2022/09/03 11:20:20;;;;;;;2.65;1.30;;;;;;;;;;4989602;28;20033;-78
2022/09/03 11:22:47;;;;;;;7.68;1.30;;;;;;;;;;4989544;28;20406;-85
2022/09/03 11:25:14;;;;;;;4.22;1.08;;;;;;;;;;4989484;28;20106;-83
2022/09/03 11:27:40;;;;;;;3.75;1.45;;;;;;;;;;4989528;28;20066;-80
2022/09/03 11:30:09;;;;;;;2.75;1.25;;;;;;;;;;4974367;28;20045;-75
2022/09/03 11:32:45;;;;;;;3.70;1.48;;;;;;;;;;4978496;28;20030;-72
2022/09/03 11:35:37;;;;;;;3.88;1.20;;;;;;;;;;4978690;28;20038;-75
2022/09/03 11:38:04;;;;;;;4.10;1.30;;;;;;;;;;4973456;28;20042;-72
2022/09/03 11:40:35;;;;;;;3.40;1.63;;;;;;;;;;4993246;28;20093;-84
2022/09/03 11:43:13;;;;;;;3.00;1.60;;;;;;;;;;4993325;28;20035;-84
2022/09/03 11:45:39;;;;;;;6.95;1.38;;;;;;;;;;4993267;28;20514;-86
2022/09/03 11:48:28;;;;;;;3.15;1.20;;;;;;;;;;4978060;28;20439;-78
2022/09/03 11:50:54;;;;;;;1.83;1.13;;;;;;;;;;4993055;28;20111;-84
2022/09/03 11:53:27;;;;;;;2.55;1.25;;;;;;;;;;4992691;28;20027;-86
2022/09/03 11:56:03;;;;;;;3.03;1.30;;;;;;;;;;4992936;28;20035;-86
2022/09/03 11:58:31;;;;;;;3.58;1.30;;;;;;;;;;4993102;28;20281;-86
2022/09/03 12:00:58;;;;;;;3.13;1.20;;;;;;;;;;4992613;28;20118;-82
2022/09/03 12:03:27;;;;;;;2.58;0.88;;;;;;;;;;4992531;28;20034;-84
2022/09/03 12:06:02;;;;;;;2.38;0.90;;;;;;;;;;4992786;28;20479;-85
2022/09/03 12:08:42;;;;;;;4.68;1.27;;;;;;;;;;4992663;28;20578;-85
2022/09/03 12:11:24;;;;;;;4.15;0.98;;;;;;;;;;4992916;28;20058;-86
2022/09/03 12:13:56;;;;;;;3.08;1.30;;;;;;;;;;4977771;28;20110;-86
2022/09/03 12:16:28;;;;;;;3.15;1.10;;;;;;;;;;4992681;28;20070;-86
2022/09/03 12:18:57;;;;;;;1.88;1.10;;;;;;;;;;4992976;28;20019;-88
2022/09/03 12:21:25;;;;;;;3.83;1.17;;;;;;;;;;4992528;28;20439;-85
2022/09/03 12:23:53;;;;;;;62.28;3.10;;;;;;;;;;4977535;28;20090;-89
2022/09/03 12:26:22;;;;;;;3.28;1.13;;;;;;;;;;4992885;28;20093;-83
2022/09/03 12:28:50;;;;;;;4.45;0.93;;;;;;;;;;4992968;28;20450;-89
2022/09/03 12:31:24;;;;;;;2.70;0.90;;;;;;;;;;4992336;28;20487;-86
2022/09/03 12:34:11;;;;;;;6.80;1.08;;;;;;;;;;4992565;28;20031;-87
2022/09/03 12:36:41;;;;;;;1.55;0.80;;;;;;;;;;4992124;28;20061;-86
2022/09/03 12:39:08;;;;;;;2.75;1.23;;;;;;;;;;4992193;28;20084;-86
2022/09/03 12:41:34;;;;;;;3.17;1.20;;;;;;;;;;4977440;28;20399;-88
2022/09/03 12:44:01;;;;;;;3.78;1.30;;;;;;;;;;4991505;28;20030;-83
2022/09/03 12:46:28;;;;;;;2.80;1.05;;;;;;;;;;4991881;28;20090;-83
2022/09/03 12:49:02;;;;;;;2.30;1.02;;;;;;;;;;4991885;28;20023;-85
2022/09/03 12:51:37;;;;;;;3.40;1.27;;;;;;;;;;4991900;28;20041;-82
2022/09/03 12:54:06;;;;;;;1.92;0.95;;;;;;;;;;4976749;28;20035;-81
2022/09/03 12:56:33;;;;;;;1.98;0.95;;;;;;;;;;4991665;28;20126;-83
2022/09/03 12:59:03;;;;;;;3.85;1.02;;;;;;;;;;4991585;28;20050;-87
2022/09/03 13:01:33;;;;;;;1.90;1.08;;;;;;;;;;4976976;28;20440;-87
2022/09/03 13:03:59;;;;;;;1.92;1.00;;;;;;;;;;4992865;28;20527;-85
2022/09/03 13:06:28;;;;;;;2.85;1.13;;;;;;;;;;4978144;28;20034;-86
2022/09/03 13:09:00;;;;;;;2.15;0.93;;;;;;;;;;4992060;28;20097;-85
2022/09/03 13:11:27;;;;;;;2.05;1.08;;;;;;;;;;4992001;28;20064;-85
2022/09/03 13:13:54;;;;;;;2.00;0.88;;;;;;;;;;4991531;28;20031;-86
2022/09/03 13:16:40;;;;;;;1.85;0.98;;;;;;;;;;4976740;28;20027;-84
2022/09/03 13:19:10;;;;;;;1.75;1.00;;;;;;;;;;4991459;28;20062;-85
2022/09/03 13:21:39;;;;;;;2.17;1.00;;;;;;;;;;4991666;28;20039;-87
2022/09/03 13:24:11;;;;;;;2.85;1.10;;;;;;;;;;4991091;28;20081;-86
2022/09/03 13:26:40;;;;;;;3.17;1.07;;;;;;;;;;4992009;28;20126;-89
2022/09/03 13:29:25;;;;;;;3.30;1.27;;;;;;;;;;4991629;28;20341;-84
2022/09/03 13:31:56;;;;;;;2.30;1.00;;;;;;;;;;4991409;28;20027;-83
2022/09/03 13:34:37;;;;;;;2.47;1.20;;;;;;;;;;5071778;23;20145;-88
2022/09/03 13:37:09;;;;;;;2.85;0.90;;;;;;;;;;4995419;28;20018;-85
2022/09/03 13:39:40;;;;;;;2.20;1.02;;;;;;;;;;4995385;28;20026;-87
2022/09/03 13:42:12;;;;;;;1.85;1.00;;;;;;;;;;5010505;28;20452;-86
2022/09/03 13:44:38;;;;;;;2.63;1.07;;;;;;;;;;4995925;28;20038;-85
2022/09/03 13:47:25;;;;;;;2.80;1.10;;;;;;;;;;4995250;28;20019;-82
2022/09/03 13:52:56;;;;;;;1.92;0.90;;;;;;;;;;4995629;28;20061;-84
2022/09/03 13:55:22;;;;;;;2.00;1.00;;;;;;;;;;5009174;28;20062;-84
2022/09/03 13:57:51;;;;;;;1.55;0.85;;;;;;;;;;5010543;28;20019;-86
2022/09/03 14:00:31;;;;;;;2.10;1.17;;;;;;;;;;4995001;28;20034;-87
2022/09/03 14:02:59;;;;;;;2.20;0.80;;;;;;;;;;5010154;28;20069;-84
2022/09/03 14:05:34;;;;;;;1.92;0.80;;;;;;;;;;4995047;28;20030;-79
2022/09/03 14:08:19;;;;;;;1.50;0.80;;;;;;;;;;5010500;28;20113;-86
2022/09/03 14:10:58;;;;;;;2.63;0.90;;;;;;;;;;5009943;28;20022;-86
2022/09/03 14:13:30;;;;;;;1.90;1.00;;;;;;;;;;5009888;28;20510;-86
2022/09/03 14:15:56;;;;;;;2.05;1.02;;;;;;;;;;5009608;28;20037;-82
2022/09/03 14:18:32;;;;;;;1.35;0.70;;;;;;;;;;4994698;28;20054;-82
2022/09/03 14:21:03;;;;;;;1.90;0.90;;;;;;;;;;5010419;28;20026;-85
2022/09/03 14:23:29;;;;;;;1.42;0.80;;;;;;;;;;5009875;28;20066;-86
2022/09/03 14:25:56;;;;;;;2.78;1.00;;;;;;;;;;4994715;28;20061;-87
2022/09/03 14:28:29;;;;;;;2.05;0.88;;;;;;;;;;5009893;28;20033;-89
2022/09/03 14:30:55;;;;;;;;;;;;;;;;;;5010218;28;20089;-87
2022/09/03 14:33:27;;;;;;;1.40;0.68;;;;;;;;;;5009836;28;20286;-85
2022/09/03 14:36:02;;;;;;;2.25;1.10;;;;;;;;;;4994323;28;20488;-82
2022/09/03 14:38:35;;;;;;;2.53;1.13;;;;;;;;;;5014307;28;20022;-83
2022/09/03 14:41:15;;;;;;;8.45;1.27;;;;;;;;;;5010848;28;20060;-82
2022/09/03 14:44:00;;;;;;;1.85;0.95;;;;;;;;;;4974926;28;20023;-86
2022/09/03 14:46:37;;;;;;;2.85;1.02;;;;;;;;;;4991883;28;20052;-85
2022/09/03 14:49:13;;;;;;;3.30;0.98;;;;;;;;;;5014257;28;20022;-80
2022/09/03 14:51:53;;;;;;;2.20;1.02;;;;;;;;;;5029030;28;20025;-81
2022/09/03 14:54:25;;;;;;;2.88;0.95;;;;;;;;;;5010384;28;20386;-81
2022/09/03 14:57:11;;;;;;;3.35;1.00;;;;;;;;;;5009251;28;20431;-83
2022/09/03 14:59:40;;;;;;;4.53;1.10;;;;;;;;;;5009291;28;20034;-79
2022/09/03 15:02:09;;;;;;;1.45;0.80;;;;;;;;;;4994223;28;20077;-83
2022/09/03 15:04:47;;;;;;;1.92;0.90;;;;;;;;;;4994045;28;20030;-81
2022/09/03 15:07:31;;;;;;;1.58;0.70;;;;;;;;;;4993827;28;20026;-81
2022/09/03 15:10:08;;;;;;;1.70;0.98;;;;;;;;;;4993963;28;20061;-83
2022/09/03 15:12:34;;;;;;;2.05;0.90;;;;;;;;;;5006912;28;20048;-84
2022/09/03 15:15:05;;;;;;;1.67;1.00;;;;;;;;;;5013580;28;20112;-84